createdAt,value
2023-03-25T00:01:45.748Z,6.42
2023-03-25T00:04:55.275Z,6.46
2023-03-25T00:07:57.624Z,6.27
2023-03-25T00:11:01.822Z,6.23
2023-03-25T00:14:04.602Z,6.24
2023-03-25T00:17:07.059Z,6.18
2023-03-25T00:20:10.374Z,6.15
2023-03-25T00:23:16.298Z,6.20
2023-03-25T00:26:18.598Z,6.25
2023-03-25T00:29:21.692Z,6.26
2023-03-25T00:32:24.450Z,6.44
2023-03-25T00:35:26.936Z,6.49
2023-03-25T00:38:35.237Z,6.76
2023-03-25T00:41:37.867Z,6.76
2023-03-25T00:44:41.108Z,6.46
2023-03-25T00:47:44.233Z,6.26
2023-03-25T00:50:48.903Z,6.15
2023-03-25T00:53:56.270Z,6.22
2023-03-25T00:56:58.626Z,6.18
2023-03-25T01:00:01.407Z,6.18
2023-03-25T01:03:04.419Z,6.05
2023-03-25T01:06:14.080Z,6.10
2023-03-25T01:09:16.396Z,6.05
2023-03-25T01:12:19.955Z,6.16
2023-03-25T01:15:22.326Z,6.13
2023-03-25T01:18:24.657Z,6.19
2023-03-25T01:21:27.213Z,6.13
2023-03-25T01:24:29.621Z,6.09
2023-03-25T01:27:31.977Z,6.11
2023-03-25T01:30:34.391Z,5.98
2023-03-25T01:33:36.718Z,6.05
2023-03-25T01:36:46.705Z,6.05
2023-03-25T01:39:49.366Z,6.07
2023-03-25T01:42:53.061Z,6.04
2023-03-25T01:45:55.810Z,6.06
2023-03-25T01:48:58.373Z,6.18
2023-03-25T01:52:04.409Z,6.21
2023-03-25T01:55:07.976Z,6.20
2023-03-25T01:58:12.420Z,5.89
2023-03-25T02:01:15.405Z,5.79
2023-03-25T02:04:27.422Z,5.72
2023-03-25T02:07:32.824Z,5.73
2023-03-25T02:10:36.698Z,5.67
2023-03-25T02:13:40.594Z,5.58
2023-03-25T02:17:03.282Z,5.86
2023-03-25T02:20:24.082Z,5.81
2023-03-25T02:23:34.503Z,5.86
2023-03-25T02:27:14.524Z,5.89
2023-03-25T02:30:38.705Z,5.91
2023-03-25T02:33:48.354Z,5.91
2023-03-25T02:37:33.726Z,5.78
2023-03-25T02:40:40.810Z,5.81
2023-03-25T02:44:02.388Z,5.79
2023-03-25T02:47:14.348Z,5.61
2023-03-25T02:50:22.099Z,5.86
2023-03-25T02:53:33.557Z,5.80
2023-03-25T02:56:38.039Z,5.84
2023-03-25T02:59:40.900Z,5.90
2023-03-25T03:02:53.397Z,5.92
2023-03-25T03:06:00.933Z,5.85
2023-03-25T03:09:12.475Z,5.86
2023-03-25T03:12:26.533Z,5.82
2023-03-25T03:15:43.776Z,5.91
2023-03-25T03:18:57.406Z,5.87
2023-03-25T03:22:08.659Z,5.88
2023-03-25T03:25:11.242Z,5.85
2023-03-25T03:28:25.422Z,5.73
2023-03-25T03:31:48.855Z,5.75
2023-03-25T03:35:06.879Z,5.80
2023-03-25T03:38:12.940Z,5.69
2023-03-25T03:41:19.924Z,5.75
2023-03-25T03:44:27.038Z,5.69
2023-03-25T03:47:32.848Z,5.68
2023-03-25T03:50:41.067Z,5.74
2023-03-25T03:53:48.641Z,5.64
2023-03-25T03:56:53.773Z,5.70
2023-03-25T04:00:02.804Z,5.70
2023-03-25T04:03:24.948Z,5.65
2023-03-25T04:06:35.626Z,5.65
2023-03-25T04:10:03.039Z,5.63
2023-03-25T04:13:10.781Z,5.59
2023-03-25T04:16:13.492Z,5.51
2023-03-25T04:19:19.096Z,5.53
2023-03-25T04:22:21.981Z,5.51
2023-03-25T04:25:25.520Z,5.56
2023-03-25T04:28:27.877Z,5.30
2023-03-25T04:31:31.436Z,5.50
2023-03-25T04:34:33.973Z,5.42
2023-03-25T04:37:37.226Z,5.63
2023-03-25T04:40:40.780Z,5.55
2023-03-25T04:43:45.307Z,5.55
2023-03-25T04:46:47.980Z,5.72
2023-03-25T04:49:50.711Z,5.74
2023-03-25T04:52:53.959Z,5.89
2023-03-25T04:55:56.688Z,5.55
2023-03-25T04:58:59.066Z,5.66
2023-03-25T05:02:03.140Z,5.64
2023-03-25T05:05:05.645Z,5.73
2023-03-25T05:08:08.237Z,5.75
2023-03-25T05:11:10.581Z,5.76
2023-03-25T05:14:14.933Z,5.76
2023-03-25T05:17:17.317Z,5.68
2023-03-25T05:20:19.716Z,5.83
2023-03-25T05:23:22.100Z,5.73
2023-03-25T05:26:25.652Z,5.73
2023-03-25T05:29:27.925Z,5.72
2023-03-25T05:32:33.444Z,5.74
2023-03-25T05:35:35.963Z,6.02
2023-03-25T05:38:41.761Z,5.94
2023-03-25T05:41:45.925Z,6.43
2023-03-25T05:44:51.279Z,6.55
2023-03-25T05:47:54.339Z,6.87
2023-03-25T05:50:56.790Z,6.99
2023-03-25T05:53:59.860Z,7.30
2023-03-25T05:57:02.250Z,7.48
2023-03-25T06:00:07.993Z,7.67
2023-03-25T06:03:13.912Z,7.69
2023-03-25T06:06:19.302Z,7.72
2023-03-25T06:09:21.718Z,7.97
2023-03-25T06:12:27.622Z,8.08
2023-03-25T06:15:33.517Z,8.28
2023-03-25T06:18:39.136Z,8.27
2023-03-25T06:21:41.382Z,8.42
2023-03-25T06:24:43.982Z,8.17
2023-03-25T06:27:48.623Z,8.19
2023-03-25T06:30:51.229Z,8.28
2023-03-25T06:33:57.156Z,8.49
2023-03-25T06:37:00.490Z,8.52
2023-03-25T06:40:02.980Z,8.16
2023-03-25T06:43:06.421Z,8.25
2023-03-25T06:46:11.743Z,8.42
2023-03-25T06:49:33.082Z,8.65
2023-03-25T06:52:36.212Z,8.53
2023-03-25T06:55:39.198Z,8.69
2023-03-25T06:58:42.125Z,8.63
2023-03-25T07:01:44.669Z,8.82
2023-03-25T07:04:47.085Z,8.95
2023-03-25T07:07:49.459Z,8.67
2023-03-25T07:10:51.966Z,8.45
2023-03-25T07:13:54.646Z,8.52
2023-03-25T07:16:57.105Z,8.55
2023-03-25T07:19:59.503Z,8.85
2023-03-25T07:23:01.978Z,8.92
2023-03-25T07:26:04.559Z,9.01
2023-03-25T07:29:07.371Z,9.05
2023-03-25T07:32:09.935Z,8.57
2023-03-25T07:35:12.381Z,8.56
2023-03-25T07:38:15.036Z,8.56
2023-03-25T07:41:17.377Z,8.78
2023-03-25T07:44:34.319Z,8.88
2023-03-25T07:47:36.646Z,9.09
2023-03-25T07:50:39.007Z,9.31
2023-03-25T07:53:44.682Z,9.69
2023-03-25T07:56:47.107Z,9.76
2023-03-25T07:59:49.472Z,9.76
2023-03-25T08:02:51.893Z,10.07
2023-03-25T08:05:54.507Z,10.00
2023-03-25T08:08:56.997Z,10.04
2023-03-25T08:11:59.380Z,10.08
2023-03-25T08:15:01.862Z,10.22
2023-03-25T08:18:05.442Z,10.38
2023-03-25T08:21:09.945Z,10.52
2023-03-25T08:24:13.841Z,10.29
2023-03-25T08:27:16.693Z,10.45
2023-03-25T08:30:19.194Z,10.42
2023-03-25T08:33:23.193Z,10.39
2023-03-25T08:36:25.716Z,10.52
2023-03-25T08:39:30.027Z,10.59
2023-03-25T08:42:32.427Z,10.65
2023-03-25T08:45:36.604Z,10.96
2023-03-25T08:48:38.991Z,10.74
2023-03-25T08:51:41.293Z,10.93
2023-03-25T08:54:43.572Z,11.12
2023-03-25T08:57:46.025Z,10.97
2023-03-25T09:00:49.578Z,11.06
2023-03-25T09:03:52.486Z,11.24
2023-03-25T09:07:11.125Z,11.39
2023-03-25T09:10:14.771Z,11.36
2023-03-25T09:13:17.195Z,11.33
2023-03-25T09:16:19.637Z,11.38
2023-03-25T09:19:22.255Z,11.55
2023-03-25T09:22:24.692Z,11.61
2023-03-25T09:25:27.045Z,11.45
2023-03-25T09:28:29.840Z,11.59
2023-03-25T09:31:33.597Z,11.83
2023-03-25T09:34:36.441Z,11.82
2023-03-25T09:37:39.096Z,11.65
2023-03-25T09:40:45.219Z,11.94
2023-03-25T09:43:51.755Z,11.68
2023-03-25T09:46:55.241Z,11.66
2023-03-25T09:50:01.103Z,11.62
2023-03-25T09:53:27.313Z,11.36
2023-03-25T09:56:32.548Z,11.24
2023-03-25T09:59:44.451Z,11.22
2023-03-25T10:02:55.443Z,11.15
2023-03-25T10:06:03.758Z,11.28
2023-03-25T10:09:06.149Z,11.42
2023-03-25T10:12:30.382Z,11.68
2023-03-25T10:15:41.631Z,12.11
2023-03-25T10:19:07.116Z,12.24
2023-03-25T10:22:19.333Z,12.27
2023-03-25T10:25:25.737Z,12.50
2023-03-25T10:28:33.541Z,12.32
2023-03-25T10:31:40.456Z,12.05
2023-03-25T10:34:47.764Z,11.98
2023-03-25T10:37:52.915Z,11.82
2023-03-25T10:41:11.285Z,11.66
2023-03-25T10:44:14.235Z,11.74
2023-03-25T10:47:20.346Z,11.87
2023-03-25T10:50:23.359Z,11.82
2023-03-25T10:53:27.291Z,11.87
2023-03-25T10:56:36.203Z,11.72
2023-03-25T10:59:45.438Z,11.55
2023-03-25T11:02:48.462Z,11.20
2023-03-25T11:05:52.017Z,11.13
2023-03-25T11:08:59.447Z,10.89
2023-03-25T11:12:05.599Z,11.01
2023-03-25T11:15:08.662Z,11.17
2023-03-25T11:18:40.685Z,11.44
2023-03-25T11:21:48.101Z,11.73
2023-03-25T11:24:57.362Z,11.61
2023-03-25T11:28:03.473Z,11.73
2023-03-25T11:31:18.047Z,11.63
2023-03-25T11:34:21.753Z,11.35
2023-03-25T11:37:28.500Z,11.57
2023-03-25T11:40:33.007Z,11.35
2023-03-25T11:43:37.960Z,10.78
2023-03-25T11:46:43.666Z,11.05
2023-03-25T11:49:49.662Z,10.88
2023-03-25T11:52:58.822Z,11.17
2023-03-25T11:56:04.878Z,11.29
2023-03-25T11:59:29.232Z,11.03
2023-03-25T12:02:38.251Z,11.64
2023-03-25T12:05:41.977Z,12.07
2023-03-25T12:08:52.010Z,12.02
2023-03-25T12:12:35.136Z,12.12
2023-03-25T12:15:41.989Z,12.10
2023-03-25T12:18:49.681Z,11.94
2023-03-25T12:21:55.184Z,11.42
2023-03-25T12:25:12.849Z,11.43
2023-03-25T12:28:33.081Z,11.61
2023-03-25T12:31:47.497Z,11.81
2023-03-25T12:34:55.153Z,12.52
2023-03-25T12:38:10.608Z,12.48
2023-03-25T12:41:23.414Z,12.23
2023-03-25T12:44:34.652Z,11.70
2023-03-25T12:47:44.681Z,11.81
2023-03-25T12:51:05.527Z,12.31
2023-03-25T12:54:32.372Z,12.73
2023-03-25T12:58:05.671Z,12.81
2023-03-25T13:01:17.758Z,12.96
2023-03-25T13:04:44.845Z,12.47
2023-03-25T13:07:55.175Z,12.19
2023-03-25T13:11:07.461Z,12.28
2023-03-25T13:14:16.748Z,12.86
2023-03-25T13:17:44.014Z,12.84
2023-03-25T13:21:06.882Z,12.61
2023-03-25T13:24:22.123Z,12.46
2023-03-25T13:27:24.764Z,12.45
2023-03-25T13:30:41.862Z,12.10
2023-03-25T13:34:04.387Z,12.26
2023-03-25T13:37:24.050Z,12.10
2023-03-25T13:40:33.857Z,11.79
2023-03-25T13:43:43.718Z,11.33
2023-03-25T13:46:53.405Z,11.61
2023-03-25T13:50:07.290Z,11.69
2023-03-25T13:53:29.912Z,11.62
2023-03-25T13:56:52.134Z,11.53
2023-03-25T14:00:14.595Z,11.33
2023-03-25T14:03:23.138Z,11.06
2023-03-25T14:07:06.262Z,10.54
2023-03-25T14:10:39.435Z,10.43
2023-03-25T14:13:46.179Z,10.90
2023-03-25T14:16:52.291Z,10.95
2023-03-25T14:19:58.462Z,10.97
2023-03-25T14:23:05.572Z,11.05
2023-03-25T14:26:10.261Z,11.27
2023-03-25T14:29:47.349Z,11.22
2023-03-25T14:32:52.200Z,11.14
2023-03-25T14:35:54.888Z,11.11
2023-03-25T14:38:58.459Z,11.05
2023-03-25T14:42:03.214Z,10.99
2023-03-25T14:45:30.205Z,11.53
2023-03-25T14:48:37.956Z,11.54
2023-03-25T14:51:41.806Z,11.59
2023-03-25T14:54:44.345Z,11.10
2023-03-25T14:57:48.075Z,11.49
2023-03-25T15:01:04.549Z,11.43
2023-03-25T15:04:31.080Z,11.35
2023-03-25T15:07:51.988Z,11.22
2023-03-25T15:11:09.424Z,11.03
2023-03-25T15:14:17.312Z,10.93
2023-03-25T15:17:49.389Z,10.90
2023-03-25T15:20:51.950Z,11.13
2023-03-25T15:24:27.490Z,10.87
2023-03-25T15:27:35.430Z,10.85
2023-03-25T15:30:49.537Z,11.19
2023-03-25T15:34:10.598Z,11.06
2023-03-25T15:37:19.399Z,10.62
2023-03-25T15:41:13.113Z,10.62
2023-03-25T15:44:42.891Z,10.24
2023-03-25T15:48:12.545Z,10.03
2023-03-25T15:51:33.414Z,9.99
2023-03-25T15:54:47.574Z,9.83
2023-03-25T15:58:01.493Z,9.87
2023-03-25T16:01:31.470Z,9.64
2023-03-25T16:04:42.452Z,9.83
2023-03-25T16:07:46.276Z,9.56
2023-03-25T16:10:49.330Z,9.56
2023-03-25T16:14:22.810Z,9.48
2023-03-25T16:17:31.898Z,9.50
2023-03-25T16:20:36.553Z,9.66
2023-03-25T16:23:39.518Z,9.60
2023-03-25T16:26:48.157Z,9.61
2023-03-25T16:29:53.854Z,9.83
2023-03-25T16:33:32.497Z,9.72
2023-03-25T16:36:34.979Z,9.96
2023-03-25T16:39:38.049Z,9.78
2023-03-25T16:42:40.414Z,9.77
2023-03-25T16:45:44.147Z,9.53
2023-03-25T16:48:54.329Z,9.48
2023-03-25T16:51:58.469Z,9.48
2023-03-25T16:55:04.942Z,9.44
2023-03-25T16:58:16.070Z,9.38
2023-03-25T17:01:19.000Z,9.35
2023-03-25T17:04:26.195Z,9.27
2023-03-25T17:07:29.766Z,9.34
2023-03-25T17:10:34.770Z,9.18
2023-03-25T17:13:48.727Z,9.14
2023-03-25T17:16:53.118Z,9.05
2023-03-25T17:19:55.963Z,9.08
2023-03-25T17:23:08.327Z,8.95
2023-03-25T17:26:13.061Z,8.85
2023-03-25T17:29:16.032Z,8.74
2023-03-25T17:32:19.303Z,8.55
2023-03-25T17:35:28.161Z,8.63
2023-03-25T17:38:40.329Z,8.46
2023-03-25T17:41:42.754Z,8.44
2023-03-25T17:44:46.020Z,8.45
2023-03-25T17:47:49.592Z,8.40
2023-03-25T17:50:53.393Z,8.30
2023-03-25T17:53:56.352Z,8.18
2023-03-25T17:56:58.849Z,8.09
2023-03-25T18:00:01.450Z,7.97
2023-03-25T18:03:11.227Z,8.10
2023-03-25T18:06:14.204Z,8.03
2023-03-25T18:09:18.647Z,7.90
2023-03-25T18:12:21.211Z,7.78
2023-03-25T18:15:23.503Z,7.96
2023-03-25T18:18:27.205Z,8.08
2023-03-25T18:21:29.879Z,8.11
2023-03-25T18:24:33.925Z,8.15
2023-03-25T18:27:43.706Z,8.17
2023-03-25T18:30:46.699Z,8.04
2023-03-25T18:33:54.269Z,7.89
2023-03-25T18:36:56.698Z,7.62
2023-03-25T18:39:59.317Z,7.68
2023-03-25T18:43:01.685Z,7.65
2023-03-25T18:46:04.507Z,7.52
2023-03-25T18:49:14.130Z,7.75
2023-03-25T18:52:16.547Z,7.45
2023-03-25T18:55:19.758Z,7.37
2023-03-25T18:58:24.873Z,7.50
2023-03-25T19:01:27.811Z,7.41
2023-03-25T19:04:31.976Z,7.19
2023-03-25T19:07:34.269Z,7.23
2023-03-25T19:10:37.033Z,7.41
2023-03-25T19:13:39.504Z,7.28
2023-03-25T19:16:46.101Z,7.28
2023-03-25T19:19:53.426Z,7.27
2023-03-25T19:22:56.632Z,7.43
2023-03-25T19:26:01.184Z,7.41
2023-03-25T19:29:03.585Z,7.45
2023-03-25T19:32:06.609Z,7.47
2023-03-25T19:35:11.153Z,7.40
2023-03-25T19:38:13.347Z,7.40
2023-03-25T19:41:16.773Z,7.30
2023-03-25T19:44:21.868Z,7.19
2023-03-25T19:47:24.748Z,7.13
2023-03-25T19:50:30.592Z,6.96
2023-03-25T19:53:34.201Z,6.94
2023-03-25T19:56:37.089Z,6.93
2023-03-25T19:59:39.610Z,6.97
2023-03-25T20:02:42.044Z,6.94
2023-03-25T20:05:44.659Z,6.98
2023-03-25T20:08:47.506Z,6.94
2023-03-25T20:11:49.848Z,6.84
2023-03-25T20:14:53.382Z,6.77
2023-03-25T20:17:56.572Z,6.80
2023-03-25T20:20:59.010Z,6.73
2023-03-25T20:24:02.151Z,6.68
2023-03-25T20:27:04.528Z,6.66
2023-03-25T20:30:08.510Z,6.36
2023-03-25T20:33:11.252Z,6.50
2023-03-25T20:36:13.681Z,6.49
2023-03-25T20:39:16.196Z,6.40
2023-03-25T20:42:18.852Z,6.50
2023-03-25T20:45:21.323Z,6.46
2023-03-25T20:48:28.746Z,6.37
2023-03-25T20:51:31.023Z,6.29
2023-03-25T20:54:34.208Z,6.27
2023-03-25T20:57:37.238Z,6.07
2023-03-25T21:00:39.621Z,6.05
2023-03-25T21:03:42.981Z,5.88
2023-03-25T21:06:45.409Z,5.74
2023-03-25T21:09:47.887Z,5.82
2023-03-25T21:12:50.329Z,6.09
2023-03-25T21:15:57.420Z,6.24
2023-03-25T21:19:03.929Z,6.20
2023-03-25T21:22:06.713Z,6.40
2023-03-25T21:25:09.764Z,6.61
2023-03-25T21:28:12.434Z,6.35
2023-03-25T21:31:22.018Z,6.58
2023-03-25T21:34:24.992Z,6.78
2023-03-25T21:37:28.092Z,6.75
2023-03-25T21:40:39.687Z,6.40
2023-03-25T21:43:42.727Z,6.64
2023-03-25T21:46:45.656Z,6.61
2023-03-25T21:49:50.715Z,6.38
2023-03-25T21:52:53.447Z,6.29
2023-03-25T21:56:00.163Z,6.54
2023-03-25T21:59:04.738Z,6.52
2023-03-25T22:02:08.697Z,6.54
2023-03-25T22:05:12.846Z,6.34
2023-03-25T22:08:16.108Z,6.35
2023-03-25T22:11:21.216Z,6.65
2023-03-25T22:14:23.981Z,6.52
2023-03-25T22:17:26.712Z,6.49
2023-03-25T22:20:29.107Z,6.41
2023-03-25T22:23:31.782Z,6.46
2023-03-25T22:26:35.351Z,6.41
2023-03-25T22:29:37.802Z,6.60
2023-03-25T22:32:40.610Z,6.46
2023-03-25T22:35:43.325Z,6.65
2023-03-25T22:38:48.078Z,6.57
2023-03-25T22:41:50.633Z,6.45
2023-03-25T22:44:53.226Z,6.38
2023-03-25T22:47:55.787Z,6.51
2023-03-25T22:50:58.419Z,6.15
2023-03-25T22:54:00.725Z,6.38
2023-03-25T22:57:03.005Z,6.46
2023-03-25T23:00:13.104Z,6.40
2023-03-25T23:03:15.660Z,6.35
2023-03-25T23:06:18.099Z,6.41
2023-03-25T23:09:40.442Z,6.50
2023-03-25T23:12:42.995Z,6.59
2023-03-25T23:15:46.505Z,6.61
2023-03-25T23:18:49.361Z,6.75
2023-03-25T23:21:51.891Z,6.59
2023-03-25T23:24:54.367Z,6.58
2023-03-25T23:27:58.167Z,6.40
2023-03-25T23:31:02.103Z,6.49
2023-03-25T23:34:07.036Z,6.52
2023-03-25T23:37:09.389Z,6.54
2023-03-25T23:40:12.655Z,6.43
2023-03-25T23:43:15.862Z,6.44
2023-03-25T23:46:20.223Z,6.48
2023-03-25T23:49:23.041Z,6.50
2023-03-25T23:52:25.608Z,6.32
2023-03-25T23:55:27.932Z,6.39
2023-03-25T23:58:32.518Z,6.35
